Time;durP1;ratioP1;P1;durP2;ratioP2;P2;SDS_P1;SDS_P2;PMS_P1;PMS_P2;Temp;Humidity;BMP_temperature;BMP_pressure;BME280_temperature;BME280_humidity;BME280_pressure;Samples;Min_cycle;Max_cycle;Signal;HPM_P1;HPM_P2
2021/04/11 00:01:48;;;;;;;6.13;3.80;;;;;;;12.81;35.78;101877.38;4938598;29;20031;-83
2021/04/11 00:04:14;;;;;;;10.52;3.78;;;;;;;12.76;36.06;101872.78;4938562;29;20035;-76
2021/04/11 00:06:39;;;;;;;6.80;3.42;;;;;;;12.87;35.45;101885.22;4938362;29;20070;-75
2021/04/11 00:09:06;;;;;;;8.95;3.72;;;;;;;12.81;35.39;101889.16;4938414;29;20502;-79
2021/04/11 00:11:32;;;;;;;13.15;4.40;;;;;;;12.80;35.56;101884.00;4938467;29;20043;-83
2021/04/11 00:13:58;;;;;;;5.38;3.25;;;;;;;12.71;35.52;101887.41;4938249;29;20040;-75
2021/04/11 00:16:24;;;;;;;9.43;3.67;;;;;;;12.73;35.52;101885.19;4938283;28;20027;-84
2021/04/11 00:18:50;;;;;;;8.70;3.53;;;;;;;12.64;35.69;101886.97;4938217;29;20035;-75
2021/04/11 00:21:16;;;;;;;6.00;3.70;;;;;;;12.63;35.69;101884.53;4938080;29;20038;-84
2021/04/11 00:23:42;;;;;;;5.95;3.60;;;;;;;12.73;35.43;101881.63;4938036;28;20047;-83
2021/04/11 00:26:08;;;;;;;7.55;3.65;;;;;;;12.71;35.45;101886.59;4937948;29;20024;-84
2021/04/11 00:28:33;;;;;;;6.55;3.50;;;;;;;12.69;35.21;101881.41;4936633;29;20158;-83
2021/04/11 00:31:00;;;;;;;6.80;3.17;;;;;;;12.62;35.56;101888.38;4938062;29;20031;-75
2021/04/11 00:33:32;;;;;;;6.45;4.28;;;;;;;12.68;35.26;101885.25;4937956;28;20035;-75
2021/04/11 00:36:07;;;;;;;9.63;3.55;;;;;;;12.66;35.39;101887.50;4937773;29;20040;-77
2021/04/11 00:38:33;;;;;;;7.55;3.40;;;;;;;12.71;35.54;101892.09;4937951;29;20034;-76
2021/04/11 00:41:31;;;;;;;7.22;3.83;;;;;;;12.64;35.38;101897.94;4937987;28;20415;-84
2021/04/11 00:43:58;;;;;;;9.90;3.72;;;;;;;12.67;35.29;101891.03;4937796;29;20032;-84
2021/04/11 00:46:44;;;;;;;6.60;4.20;;;;;;;12.67;35.18;101896.53;4937742;29;20043;-80
2021/04/11 00:49:42;;;;;;;9.07;4.07;;;;;;;12.58;35.23;101901.88;4937612;28;20087;-75
2021/04/11 00:52:10;;;;;;;7.22;3.88;;;;;;;12.68;35.00;101892.66;4937555;29;20046;-84
2021/04/11 00:54:37;;;;;;;8.20;3.60;;;;;;;12.66;35.19;101895.72;4937416;29;20529;-84
2021/04/11 00:57:05;;;;;;;6.93;3.35;;;;;;;12.43;35.53;101894.69;4936325;29;20114;-83
2021/04/11 00:59:31;;;;;;;8.35;3.60;;;;;;;12.59;35.20;101887.06;4937229;29;20092;-82
2021/04/11 01:01:57;;;;;;;8.32;3.97;;;;;;;12.61;35.22;101887.56;4937529;29;20114;-75
2021/04/11 01:04:22;;;;;;;10.15;3.92;;;;;;;12.57;35.31;101885.72;4936429;29;20107;-76
2021/04/11 01:06:52;;;;;;;6.00;3.50;;;;;;;12.49;35.39;101890.78;4937279;29;20039;-80
2021/04/11 01:09:28;;;;;;;9.80;4.00;;;;;;;12.58;35.21;101895.59;4937109;29;20032;-75
2021/04/11 01:11:56;;;;;;;7.32;3.65;;;;;;;12.57;35.12;101889.28;4936019;29;20486;-83
2021/04/11 01:14:23;;;;;;;6.93;4.13;;;;;;;12.53;35.32;101896.47;4937188;29;20024;-76
2021/04/11 01:16:48;;;;;;;15.07;4.90;;;;;;;12.45;35.41;101891.66;4937273;29;20031;-75
2021/04/11 01:19:20;;;;;;;7.72;4.25;;;;;;;12.54;35.43;101880.81;4919962;29;20089;-82
2021/04/11 01:22:07;;;;;;;7.75;4.07;;;;;;;12.45;35.46;101889.72;4935863;29;20046;-83
2021/04/11 01:24:45;;;;;;;7.95;3.60;;;;;;;12.39;35.18;101890.09;4937034;29;20031;-76
2021/04/11 01:27:17;;;;;;;8.40;3.85;;;;;;;12.42;35.31;101890.34;4935751;29;20521;-75
2021/04/11 01:29:44;;;;;;;6.93;2.97;;;;;;;12.40;35.35;101894.50;4936957;29;20031;-76
2021/04/11 01:32:11;;;;;;;5.07;2.97;;;;;;;12.31;35.50;101893.50;4936913;29;20031;-84
2021/04/11 01:34:39;;;;;;;5.53;3.35;;;;;;;12.40;35.21;101897.25;4936903;29;20032;-83
2021/04/11 01:37:07;;;;;;;11.48;4.65;;;;;;;12.28;35.37;101889.44;4936623;29;20024;-75
2021/04/11 01:39:37;;;;;;;6.55;3.13;;;;;;;12.21;35.58;101886.25;4935523;29;20024;-77
2021/04/11 01:42:06;;;;;;;7.07;3.25;;;;;;;12.32;35.33;101895.13;4936665;29;20051;-82
2021/04/11 01:44:34;;;;;;;9.20;4.07;;;;;;;12.20;35.43;101899.16;4936711;29;20035;-76
2021/04/11 01:47:00;;;;;;;5.50;2.83;;;;;;;12.17;35.51;101899.75;4936746;29;20023;-84
2021/04/11 01:49:27;;;;;;;13.50;3.67;;;;;;;12.11;35.54;101891.91;4936447;29;20032;-75
2021/04/11 01:52:01;;;;;;;5.90;3.92;;;;;;;12.10;35.55;101899.31;4935320;29;20031;-76
2021/04/11 01:54:31;;;;;;;6.07;3.25;;;;;;;12.00;35.44;101893.94;4936606;29;20027;-76
2021/04/11 01:56:58;;;;;;;8.57;2.83;;;;;;;12.21;35.06;101909.00;4936721;29;20024;-84
2021/04/11 01:59:28;;;;;;;9.80;3.83;;;;;;;12.08;35.37;101906.97;4935207;29;20394;-76
2021/04/11 02:01:55;;;;;;;5.38;3.00;;;;;;;12.26;35.14;101910.06;4936261;29;20042;-75
2021/04/11 02:04:22;;;;;;;5.90;2.78;;;;;;;12.21;35.08;101909.00;4936515;29;20024;-80
2021/04/11 02:06:52;;;;;;;5.80;3.10;;;;;;;12.28;34.92;101905.06;4936334;28;20525;-84
2021/04/11 02:09:27;;;;;;;7.55;3.08;;;;;;;12.25;34.86;101908.44;4936414;29;20027;-84
2021/04/11 02:11:54;;;;;;;6.32;3.30;;;;;;;12.18;35.03;101908.78;4935145;29;20398;-81
2021/04/11 02:14:20;;;;;;;7.68;2.83;;;;;;;12.10;35.18;101904.78;4936389;29;20044;-84
2021/04/11 02:16:45;;;;;;;5.25;2.28;;;;;;;12.03;35.25;101904.31;4936103;28;20031;-85
2021/04/11 02:19:16;;;;;;;5.13;2.42;;;;;;;11.97;35.35;101910.97;4936181;29;20046;-77
2021/04/11 02:21:46;;;;;;;8.25;2.88;;;;;;;12.09;34.88;101911.38;4936310;28;20024;-84
2021/04/11 02:24:13;;;;;;;9.13;2.97;;;;;;;12.07;35.06;101910.84;4935188;29;20386;-76
2021/04/11 02:26:40;;;;;;;10.63;2.83;;;;;;;11.97;35.29;101916.47;4936214;29;20031;-82
2021/04/11 02:29:14;;;;;;;6.90;3.72;;;;;;;11.97;35.08;101915.63;4936081;29;20151;-85
2021/04/11 02:31:40;;;;;;;6.07;3.17;;;;;;;11.97;35.08;101916.47;4936229;28;20060;-76
2021/04/11 02:34:11;;;;;;;22.85;5.30;;;;;;;11.95;35.19;101924.16;4936165;29;20070;-84
2021/04/11 02:36:43;;;;;;;20.77;5.85;;;;;;;11.97;35.03;101921.94;4934413;29;20032;-85
2021/04/11 02:39:13;;;;;;;11.32;3.38;;;;;;;11.95;35.05;101924.16;4935584;29;20032;-83
2021/04/11 02:41:40;;;;;;;7.10;2.80;;;;;;;11.99;34.80;101921.63;4935360;29;20053;-78
2021/04/11 02:44:07;;;;;;;6.93;3.45;;;;;;;11.88;35.08;101916.28;4935570;29;20114;-82
2021/04/11 02:46:37;;;;;;;9.95;3.20;;;;;;;11.89;35.04;101922.59;4935364;29;20024;-85
2021/04/11 02:49:04;;;;;;;7.93;2.83;;;;;;;11.76;35.40;101917.78;4935613;28;20028;-84
2021/04/11 02:51:34;;;;;;;7.72;2.78;;;;;;;11.84;35.37;101922.63;4935929;29;20028;-76
2021/04/11 02:54:02;;;;;;;8.40;2.45;;;;;;;11.85;35.16;101918.78;4935744;29;20558;-84
2021/04/11 02:56:29;;;;;;;10.27;3.38;;;;;;;11.73;35.19;101921.13;4935825;29;20023;-84
2021/04/11 02:58:55;;;;;;;6.43;2.63;;;;;;;11.84;35.13;101928.94;4935954;29;20090;-84
2021/04/11 03:01:38;;;;;;;5.95;2.22;;;;;;;11.66;35.48;101927.75;4935463;28;20055;-84
2021/04/11 03:04:04;;;;;;;6.43;2.90;;;;;;;11.78;35.48;101931.97;4935561;29;20035;-83
2021/04/11 03:06:43;;;;;;;6.93;2.35;;;;;;;11.68;35.52;101931.00;4934361;29;20070;-75
2021/04/11 03:09:13;;;;;;;6.95;2.80;;;;;;;11.75;35.29;101925.19;4935556;28;20486;-85
2021/04/11 03:12:04;;;;;;;;;;;;;;;11.57;35.61;101932.25;4936344;28;20036;-76
2021/04/11 03:14:34;;;;;;;6.82;2.72;;;;;;;11.61;35.42;101929.72;4933424;29;20286;-76
2021/04/11 03:17:03;;;;;;;7.85;2.63;;;;;;;11.64;35.40;101929.16;4935663;29;20032;-83
2021/04/11 03:19:34;;;;;;;9.13;2.95;;;;;;;11.65;35.35;101928.03;4935702;29;20113;-84
2021/04/11 03:22:00;;;;;;;5.57;2.08;;;;;;;11.64;35.33;101935.44;4935477;28;20498;-85
2021/04/11 03:24:26;;;;;;;7.65;2.97;;;;;;;11.59;35.42;101932.75;4934523;29;20036;-84
2021/04/11 03:27:33;;;;;;;6.35;2.47;;;;;;;11.44;35.79;101929.38;4934236;29;20474;-75
2021/04/11 03:30:05;;;;;;;5.03;1.88;;;;;;;11.59;35.65;101931.94;4939373;28;20032;-76
2021/04/11 03:32:39;;;;;;;9.70;2.10;;;;;;;11.59;35.41;101931.94;4939237;28;20078;-79
2021/04/11 03:35:09;;;;;;;6.35;2.30;;;;;;;11.60;35.34;101930.84;4948183;28;20022;-85
2021/04/11 03:37:36;;;;;;;8.05;2.22;;;;;;;11.53;35.52;101930.34;4958171;28;20037;-75
2021/04/11 03:40:04;;;;;;;7.15;2.40;;;;;;;11.51;35.67;101935.31;4958235;28;20057;-84
2021/04/11 03:42:33;;;;;;;5.60;2.03;;;;;;;11.45;35.78;101937.28;4957058;29;20042;-85
2021/04/11 03:44:59;;;;;;;10.70;2.72;;;;;;;11.46;35.34;101941.66;4958329;28;20509;-75
2021/04/11 03:47:36;;;;;;;8.93;2.38;;;;;;;11.37;35.71;101936.00;4956735;28;20050;-75
2021/04/11 03:50:06;;;;;;;7.95;2.00;;;;;;;11.29;36.07;101944.03;4957983;28;20035;-80
2021/04/11 03:52:59;;;;;;;14.05;2.63;;;;;;;11.32;36.07;101946.16;4957720;28;20028;-76
2021/04/11 03:55:29;;;;;;;7.97;2.35;;;;;;;11.37;35.78;101941.47;4949692;28;20043;-85
2021/04/11 03:58:00;;;;;;;6.03;2.00;;;;;;;11.48;35.65;101944.09;4957847;28;20482;-84
2021/04/11 04:00:41;;;;;;;7.22;2.38;;;;;;;11.35;35.86;101951.09;4957474;28;20047;-75
2021/04/11 04:03:10;;;;;;;8.07;2.30;;;;;;;11.40;35.53;101945.53;4957834;28;20039;-83
2021/04/11 04:05:37;;;;;;;8.07;3.55;;;;;;;11.44;35.63;101952.06;4957835;28;20024;-84
2021/04/11 04:08:04;;;;;;;7.28;4.35;;;;;;;11.44;35.81;101957.56;4957746;28;20448;-75
2021/04/11 04:10:35;;;;;;;8.07;5.82;;;;;;;11.36;35.76;101953.53;4957699;28;20035;-75
2021/04/11 04:13:09;;;;;;;11.02;5.55;;;;;;;11.32;35.88;101960.66;4957662;28;20038;-79
2021/04/11 04:15:55;;;;;;;14.48;7.93;;;;;;;11.19;36.26;101966.81;4957611;28;20078;-75
2021/04/11 04:18:21;;;;;;;12.88;5.68;;;;;;;11.32;35.87;101966.13;4957438;28;20047;-76
2021/04/11 04:21:28;;;;;;;13.45;6.88;;;;;;;11.29;35.63;101965.91;4956226;29;20027;-85
2021/04/11 04:24:22;;;;;;;10.10;6.28;;;;;;;11.19;35.99;101963.28;4957332;28;20062;-75
2021/04/11 04:26:53;;;;;;;9.15;6.50;;;;;;;11.15;35.97;101965.75;4956121;29;20031;-75
2021/04/11 04:29:32;;;;;;;9.65;6.38;;;;;;;11.09;36.13;101973.19;4957017;28;20031;-85
2021/04/11 04:32:17;;;;;;;13.23;8.93;;;;;;;11.29;35.68;101979.59;4957305;28;20031;-76
2021/04/11 04:35:24;;;;;;;14.00;7.40;;;;;;;11.29;35.49;101988.63;4957344;28;20051;-84
2021/04/11 04:38:05;;;;;;;13.63;7.97;;;;;;;11.12;35.85;101985.50;4957044;28;20106;-75
2021/04/11 04:40:55;;;;;;;13.65;8.00;;;;;;;11.19;35.76;101976.94;4956166;28;20086;-85
2021/04/11 04:43:41;;;;;;;13.77;7.47;;;;;;;11.17;35.60;101979.13;4957054;29;20027;-80
2021/04/11 04:46:13;;;;;;;13.70;7.90;;;;;;;11.15;35.59;101989.56;4956993;28;20019;-75
2021/04/11 04:48:57;;;;;;;13.25;8.57;;;;;;;11.13;35.81;101981.66;4956917;28;20031;-84
2021/04/11 04:52:03;;;;;;;20.25;8.38;;;;;;;11.05;35.75;101976.78;4957035;28;20051;-85
2021/04/11 04:54:43;;;;;;;14.38;7.43;;;;;;;11.07;35.63;101986.34;4957011;28;20038;-85
2021/04/11 04:57:24;;;;;;;11.30;7.55;;;;;;;10.99;35.97;101989.69;4956905;28;20089;-86
2021/04/11 05:00:14;;;;;;;12.45;7.03;;;;;;;11.02;35.64;101997.31;4956623;28;20099;-85
2021/04/11 05:02:43;;;;;;;12.45;7.40;;;;;;;11.07;35.83;101994.53;4955622;29;20035;-83
2021/04/11 05:05:11;;;;;;;15.35;7.70;;;;;;;11.08;35.39;101993.44;4956838;28;20031;-76
2021/04/11 05:07:51;;;;;;;16.38;9.27;;;;;;;11.04;35.59;102007.97;4956495;28;20529;-75
2021/04/11 05:10:23;;;;;;;16.98;8.85;;;;;;;11.08;35.63;102006.28;4956582;28;20105;-85
2021/04/11 05:13:03;;;;;;;15.48;10.57;;;;;;;11.03;35.73;102012.63;4956629;28;20027;-76
2021/04/11 05:15:39;;;;;;;19.10;10.52;;;;;;;11.00;35.88;102017.84;4956531;28;20438;-84
2021/04/11 05:18:11;;;;;;;12.82;8.05;;;;;;;11.05;35.75;102015.91;4956319;28;20027;-84
2021/04/11 05:20:43;;;;;;;17.88;9.15;;;;;;;11.03;35.99;102017.25;4956395;28;20039;-84
2021/04/11 05:23:15;;;;;;;15.02;10.60;;;;;;;11.10;36.00;102017.75;4956338;28;20409;-82
2021/04/11 05:26:03;;;;;;;15.00;9.23;;;;;;;11.06;35.83;102014.78;4956092;28;20451;-80
2021/04/11 05:28:51;;;;;;;12.25;8.80;;;;;;;11.06;35.94;102011.25;4942627;29;20043;-85
2021/04/11 05:31:21;;;;;;;15.70;8.98;;;;;;;11.06;35.87;102019.44;4956223;28;20079;-81
2021/04/11 05:33:49;;;;;;;;;;;;;;;10.98;36.19;102026.34;4956470;28;20106;-85
2021/04/11 05:36:43;;;;;;;14.43;7.40;;;;;;;11.05;35.88;102026.03;4956017;28;20009;-84
2021/04/11 05:39:26;;;;;;;11.20;7.65;;;;;;;11.13;35.74;102027.34;4937054;29;20036;-83
2021/04/11 05:42:06;;;;;;;9.30;7.20;;;;;;;11.14;35.95;102029.78;4936938;29;20028;-84
2021/04/11 05:44:46;;;;;;;24.85;9.88;;;;;;;11.07;35.92;102032.03;4936803;29;20032;-76
2021/04/11 05:47:12;;;;;;;;;;;;;;;11.03;36.04;102037.25;4935954;29;20031;-76
2021/04/11 05:50:01;;;;;;;31.85;11.13;;;;;;;11.05;35.85;102031.50;4936599;29;19914;-84
2021/04/11 05:52:32;;;;;;;;;;;;;;;11.06;35.72;102049.53;4936845;29;20036;-84
2021/04/11 05:55:01;;;;;;;12.48;7.85;;;;;;;11.15;35.68;102047.81;4936769;28;19915;-85
2021/04/11 05:57:38;;;;;;;11.55;7.30;;;;;;;11.17;35.36;102050.25;4936480;29;20166;-76
2021/04/11 06:00:10;;;;;;;18.73;7.80;;;;;;;11.21;35.58;102057.63;4936241;29;20102;-84
2021/04/11 06:02:48;;;;;;;29.70;7.45;;;;;;;11.22;35.72;102052.97;4919836;29;20086;-76
2021/04/11 06:05:26;;;;;;;10.05;5.07;;;;;;;11.31;35.80;102054.00;4951347;28;20386;-84
2021/04/11 06:08:00;;;;;;;16.73;6.40;;;;;;;11.34;35.56;102061.66;4935170;29;20479;-76
2021/04/11 06:10:40;;;;;;;9.45;4.70;;;;;;;11.38;35.46;102068.16;4936254;29;20036;-84
2021/04/11 06:13:13;;;;;;;6.20;3.35;;;;;;;11.45;35.43;102073.31;4936443;29;20028;-85
2021/04/11 06:16:22;;;;;;;14.45;3.65;;;;;;;11.44;35.48;102069.75;4936342;29;20118;-85
2021/04/11 06:18:51;;;;;;;5.78;2.35;;;;;;;11.55;35.29;102073.22;4935182;29;20372;-85
2021/04/11 06:21:50;;;;;;;8.73;3.10;;;;;;;11.48;35.50;102070.81;4936438;29;20058;-85
2021/04/11 06:24:31;;;;;;;6.63;3.33;;;;;;;11.58;35.72;102073.47;4936416;29;20078;-76
2021/04/11 06:27:32;;;;;;;7.40;2.03;;;;;;;11.64;35.68;102080.56;4936104;29;20034;-85
2021/04/11 06:30:10;;;;;;;12.02;3.38;;;;;;;11.74;35.59;102082.38;4936025;29;20036;-76
2021/04/11 06:33:02;;;;;;;6.57;2.40;;;;;;;11.83;35.50;102085.31;4934873;29;20057;-85
2021/04/11 06:35:39;;;;;;;7.97;3.88;;;;;;;11.97;35.36;102086.28;4936085;29;20477;-87
2021/04/11 06:38:09;;;;;;;10.18;3.38;;;;;;;12.04;35.33;102085.94;4935461;29;20152;-78
2021/04/11 06:40:41;;;;;;;12.70;3.97;;;;;;;12.04;35.64;102092.25;4935359;29;20438;-75
2021/04/11 06:43:20;;;;;;;9.57;4.03;;;;;;;12.08;35.32;102093.28;4935545;29;20024;-85
2021/04/11 06:45:59;;;;;;;17.00;4.30;;;;;;;12.19;35.25;102094.81;4935848;29;20110;-85
2021/04/11 06:48:40;;;;;;;8.85;3.83;;;;;;;12.19;35.76;102099.47;4936035;29;20035;-76
2021/04/11 06:51:28;;;;;;;7.10;3.17;;;;;;;12.29;35.52;102098.53;4936163;29;20054;-88
2021/04/11 06:54:08;;;;;;;11.82;3.50;;;;;;;12.40;35.36;102100.06;4955737;28;20422;-77
2021/04/11 06:56:49;;;;;;;13.23;5.88;;;;;;;12.48;35.25;102108.47;4940890;29;20024;-78
2021/04/11 06:59:33;;;;;;;9.60;4.68;;;;;;;12.40;35.51;102106.38;4941162;29;20112;-79
2021/04/11 07:02:34;;;;;;;18.13;5.57;;;;;;;12.10;35.61;102107.53;4943093;28;20028;-77
2021/04/11 07:05:11;;;;;;;10.82;5.88;;;;;;;12.52;35.36;102105.94;4958308;28;20027;-82
2021/04/11 07:07:59;;;;;;;18.83;6.53;;;;;;;12.64;35.12;102111.84;4958810;28;20032;-90
2021/04/11 07:10:50;;;;;;;24.98;7.90;;;;;;;12.73;34.89;102118.28;4959116;29;20114;-89
2021/04/11 07:13:15;;;;;;;34.47;8.93;;;;;;;12.92;34.89;102128.47;4958378;28;20031;-83
2021/04/11 07:16:00;;;;;;;18.05;6.03;;;;;;;13.09;34.74;102134.28;4958206;28;20382;-86
2021/04/11 07:19:08;;;;;;;30.80;9.48;;;;;;;13.02;34.88;102133.84;4957944;28;20039;-81
2021/04/11 07:21:48;;;;;;;20.05;6.95;;;;;;;13.04;34.68;102132.41;4971174;28;20042;-83
2021/04/11 07:24:29;;;;;;;7.93;5.45;;;;;;;13.11;34.42;102133.97;4949863;29;20087;-82
2021/04/11 07:27:38;;;;;;;11.85;7.32;;;;;;;13.14;34.18;102142.41;4946249;29;20502;-80
2021/04/11 07:30:26;;;;;;;22.27;8.60;;;;;;;13.60;33.65;102150.00;4902720;29;20118;-80
2021/04/11 07:33:23;;;;;;;15.18;7.68;;;;;;;13.72;33.67;102147.63;4944549;29;20027;-80
2021/04/11 07:36:00;;;;;;;25.90;9.32;;;;;;;13.66;33.59;102148.81;4948047;29;20030;-79
2021/04/11 07:39:07;;;;;;;11.98;6.70;;;;;;;13.80;33.60;102146.94;4948081;29;20023;-80
2021/04/11 07:41:56;;;;;;;10.07;5.13;;;;;;;13.68;33.51;102154.84;4948232;28;20019;-80
2021/04/11 07:45:03;;;;;;;8.23;6.03;;;;;;;13.81;33.44;102151.31;4946111;29;20111;-82
2021/04/11 07:47:47;;;;;;;10.52;5.60;;;;;;;13.72;33.51;102161.34;4941257;29;20065;-80
2021/04/11 07:51:09;;;;;;;7.70;5.68;;;;;;;13.79;33.27;102161.78;4945370;29;20023;-80
2021/04/11 07:54:09;;;;;;;11.57;3.63;;;;;;;13.50;33.89;102158.41;4947165;29;20406;-81
2021/04/11 07:56:47;;;;;;;;;;;;;;;13.62;33.62;102161.53;4946274;29;20043;-79
2021/04/11 07:59:43;;;;;;;6.05;2.50;;;;;;;13.61;33.51;102159.91;4940830;29;19915;-86
2021/04/11 08:02:33;;;;;;;13.75;9.35;;;;;;;14.16;32.90;102155.38;4941168;29;20035;-80
2021/04/11 08:05:14;;;;;;;;;;;;;;;14.10;33.31;102153.81;4952051;28;20037;-83
2021/04/11 08:08:00;;;;;;;6.53;2.63;;;;;;;13.98;33.47;102160.91;4976449;28;20004;-78
2021/04/11 08:10:52;;;;;;;8.15;2.35;;;;;;;14.24;33.19;102153.84;4953631;28;20107;-88
2021/04/11 08:13:46;;;;;;;10.52;2.80;;;;;;;14.49;33.15;102158.06;4938149;29;20028;-79
2021/04/11 08:16:31;;;;;;;5.18;2.30;;;;;;;14.60;33.01;102162.28;4936731;29;20123;-78
2021/04/11 08:19:18;;;;;;;10.38;3.15;;;;;;;14.09;33.19;102162.38;4936558;29;20031;-81
2021/04/11 08:22:08;;;;;;;5.40;2.22;;;;;;;14.48;32.96;102155.63;4937749;29;20476;-81
2021/04/11 08:24:44;;;;;;;9.70;2.58;;;;;;;14.69;32.63;102154.13;4936258;29;20074;-81
2021/04/11 08:27:18;;;;;;;11.93;7.05;;;;;;;14.71;32.93;102160.94;4937843;28;20483;-77
2021/04/11 08:30:22;;;;;;;13.55;3.92;;;;;;;14.90;32.59;102160.81;4937593;29;20118;-91
2021/04/11 08:33:00;;;;;;;7.25;2.53;;;;;;;14.78;33.10;102155.03;4860457;29;20389;-79
2021/04/11 08:35:32;;;;;;;9.32;3.50;;;;;;;15.13;32.31;102158.13;4860284;29;20094;-76
2021/04/11 08:38:35;;;;;;;32.47;5.45;;;;;;;15.23;32.24;102161.47;4909746;28;20031;-81
2021/04/11 08:41:12;;;;;;;9.55;3.28;;;;;;;15.46;31.93;102162.31;4959418;28;20048;-81
2021/04/11 08:43:54;;;;;;;13.23;3.80;;;;;;;15.38;31.80;102163.06;4954323;28;20514;-90
2021/04/11 08:46:55;;;;;;;8.38;4.60;;;;;;;15.79;31.62;102148.31;4972378;28;20023;-80
2021/04/11 08:49:26;;;;;;;5.35;2.78;;;;;;;16.01;31.33;102151.06;4953621;28;20055;-83
2021/04/11 08:52:10;;;;;;;7.45;2.42;;;;;;;15.91;31.35;102154.09;4953562;28;20081;-86
2021/04/11 08:54:49;;;;;;;3.75;1.60;;;;;;;15.70;31.28;102167.56;4939837;28;20398;-86
2021/04/11 08:57:32;;;;;;;8.60;2.22;;;;;;;15.89;31.28;102158.28;4940781;28;20049;-89
2021/04/11 09:00:09;;;;;;;4.93;2.00;;;;;;;16.12;30.71;102157.13;4941574;28;20039;-80
2021/04/11 09:03:06;;;;;;;7.28;1.63;;;;;;;16.23;30.65;102163.19;4944522;28;20398;-81
2021/04/11 09:05:58;;;;;;;2.13;1.40;;;;;;;16.14;30.49;102163.13;4934334;28;20058;-80
2021/04/11 09:08:42;;;;;;;2.72;1.50;;;;;;;15.84;30.76;102170.25;4939408;28;20031;-81
2021/04/11 09:11:40;;;;;;;5.53;1.85;;;;;;;16.00;30.04;102165.97;4941945;29;20075;-82
2021/04/11 09:14:38;;;;;;;5.13;2.92;;;;;;;16.28;30.13;102171.31;4940788;29;20090;-79
2021/04/11 09:17:23;;;;;;;7.10;4.20;;;;;;;16.32;29.96;102173.16;4913891;28;20031;-85
2021/04/11 09:20:34;;;;;;;4.85;2.75;;;;;;;16.27;28.83;102186.25;4944569;29;20040;-81
2021/04/11 09:23:47;;;;;;;5.28;2.83;;;;;;;16.31;29.66;102174.25;4937559;28;20509;-77
2021/04/11 09:26:21;;;;;;;7.55;2.75;;;;;;;16.20;29.63;102169.34;4892329;28;20098;-80
2021/04/11 09:29:09;;;;;;;7.15;3.92;;;;;;;16.45;29.54;102185.19;4939487;29;20438;-81
2021/04/11 09:31:53;;;;;;;9.30;4.18;;;;;;;16.74;29.52;102173.66;4942763;29;20130;-81
2021/04/11 09:34:45;;;;;;;4.15;2.75;;;;;;;16.57;29.04;102188.19;4946728;29;20042;-81
2021/04/11 09:37:39;;;;;;;4.60;1.55;;;;;;;16.85;28.98;102185.19;4941650;29;20038;-83
2021/04/11 09:40:32;;;;;;;5.00;2.22;;;;;;;16.86;29.03;102186.84;4942257;28;20034;-81
2021/04/11 09:43:01;;;;;;;4.43;2.22;;;;;;;16.75;28.71;102191.84;4947972;28;20414;-80
2021/04/11 09:45:54;;;;;;;4.82;1.17;;;;;;;15.98;29.48;102198.56;4946819;28;20107;-78
2021/04/11 09:49:02;;;;;;;6.25;2.90;;;;;;;16.91;28.85;102190.25;4943602;28;20043;-79
2021/04/11 09:51:42;;;;;;;2.67;1.85;;;;;;;16.30;28.33;102200.22;4938104;29;20058;-80
2021/04/11 09:54:27;;;;;;;4.80;2.53;;;;;;;16.82;28.06;102194.94;4948772;28;20568;-79
2021/04/11 09:57:17;;;;;;;7.43;1.98;;;;;;;16.46;28.47;102199.78;4954604;28;20054;-79
2021/04/11 09:59:49;;;;;;;;;;;;;;;16.68;28.53;102196.97;4950455;28;20069;-79
2021/04/11 10:02:36;;;;;;;2.88;1.30;;;;;;;16.98;28.01;102195.31;4952166;28;19922;-79
2021/04/11 10:05:11;;;;;;;5.40;2.08;;;;;;;17.22;27.78;102188.53;4952393;28;20031;-79
2021/04/11 10:08:03;;;;;;;7.00;3.00;;;;;;;17.20;27.69;102194.38;4952289;28;20655;-79
2021/04/11 10:10:31;;;;;;;4.50;2.55;;;;;;;17.26;28.03;102189.53;4953411;28;20493;-78
2021/04/11 10:13:24;;;;;;;6.38;1.95;;;;;;;17.49;27.72;102199.28;4955457;28;20032;-78
2021/04/11 10:16:00;;;;;;;5.75;1.52;;;;;;;17.23;26.49;102198.44;4953435;29;20522;-79
2021/04/11 10:18:39;;;;;;;4.15;1.10;;;;;;;17.34;27.72;102197.00;4957121;28;20027;-78
2021/04/11 10:21:32;;;;;;;2.20;0.77;;;;;;;17.15;26.36;102202.81;4954934;28;20034;-78
2021/04/11 10:24:20;;;;;;;5.65;1.58;;;;;;;17.54;26.05;102195.56;4958345;28;20573;-78
2021/04/11 10:27:09;;;;;;;3.15;0.88;;;;;;;17.56;25.68;102199.63;4973902;28;20031;-79
2021/04/11 10:29:36;;;;;;;4.03;2.00;;;;;;;17.89;26.58;102201.91;4974018;28;20485;-78
2021/04/11 10:32:28;;;;;;;10.23;3.92;;;;;;;17.78;26.55;102200.63;4973846;28;20027;-78
2021/04/11 10:35:06;;;;;;;4.05;1.08;;;;;;;17.92;25.67;102193.78;4971825;28;20049;-78
2021/04/11 10:37:46;;;;;;;2.90;0.73;;;;;;;17.76;25.66;102198.19;4953392;28;20027;-78
2021/04/11 10:40:42;;;;;;;2.67;1.70;;;;;;;17.81;25.15;102191.66;4960261;28;20027;-77
2021/04/11 10:43:19;;;;;;;6.32;2.75;;;;;;;17.64;25.67;102193.28;4973872;28;20038;-77
2021/04/11 10:45:53;;;;;;;5.22;1.30;;;;;;;17.76;24.86;102195.44;4973545;28;20137;-78
2021/04/11 10:48:37;;;;;;;4.63;2.58;;;;;;;18.10;25.07;102197.31;4972231;28;20058;-78
2021/04/11 10:51:03;;;;;;;3.33;1.70;;;;;;;18.29;24.89;102181.16;4973584;28;20548;-78
2021/04/11 10:53:57;;;;;;;6.05;1.35;;;;;;;17.96;25.62;102191.97;4973683;28;20019;-79
2021/04/11 10:56:45;;;;;;;3.28;1.98;;;;;;;18.04;24.66;102206.91;4973255;28;20086;-78
2021/04/11 10:59:47;;;;;;;2.03;0.80;;;;;;;18.37;23.87;102192.53;4964676;28;20490;-78
2021/04/11 11:02:32;;;;;;;6.30;4.55;;;;;;;18.48;23.73;102194.59;4954330;29;20031;-78
2021/04/11 11:05:16;;;;;;;3.70;1.48;;;;;;;18.71;23.61;102197.94;4954323;28;20042;-77
2021/04/11 11:08:07;;;;;;;5.60;2.33;;;;;;;18.89;23.19;102195.88;4953153;29;20031;-78
2021/04/11 11:10:33;;;;;;;2.90;2.08;;;;;;;18.63;22.39;102197.97;4967234;28;20129;-78
2021/04/11 11:13:04;;;;;;;3.58;2.60;;;;;;;18.21;22.37;102204.13;4972308;28;20462;-77
2021/04/11 11:15:55;;;;;;;4.15;0.80;;;;;;;18.82;22.41;102199.22;4973620;28;20126;-78
2021/04/11 11:18:57;;;;;;;5.75;2.05;;;;;;;19.21;22.67;102194.41;4972301;28;20045;-81
2021/04/11 11:21:43;;;;;;;3.08;1.80;;;;;;;19.13;22.93;102195.28;4973517;28;20042;-80
2021/04/11 11:24:18;;;;;;;5.70;1.08;;;;;;;19.02;22.53;102205.91;4957094;28;20039;-78
2021/04/11 11:26:56;;;;;;;2.78;0.93;;;;;;;19.08;22.26;102195.47;4973601;28;20062;-78
2021/04/11 11:29:57;;;;;;;14.18;3.10;;;;;;;19.13;22.44;102203.59;4956291;28;20074;-77
2021/04/11 11:32:34;;;;;;;3.13;1.17;;;;;;;18.51;23.33;102201.41;4896081;28;20040;-78
2021/04/11 11:35:08;;;;;;;13.60;11.27;;;;;;;18.55;23.55;102207.94;4938263;28;20131;-79
2021/04/11 11:37:55;;;;;;;3.30;1.33;;;;;;;18.76;22.76;102200.53;4972163;28;20034;-79
2021/04/11 11:40:30;;;;;;;8.43;2.22;;;;;;;18.68;21.74;102206.13;4973174;28;20039;-78
2021/04/11 11:43:11;;;;;;;2.85;1.40;;;;;;;18.83;22.58;102198.06;4971757;28;20470;-80
2021/04/11 11:45:48;;;;;;;4.32;3.40;;;;;;;18.83;22.35;102189.75;4956677;28;20450;-78
2021/04/11 11:48:30;;;;;;;27.90;21.55;;;;;;;19.29;21.83;102190.75;4951573;28;20031;-80
2021/04/11 11:51:12;;;;;;;4.50;1.33;;;;;;;19.50;21.96;102199.09;4956803;28;20027;-79
2021/04/11 11:53:45;;;;;;;6.93;5.80;;;;;;;19.38;21.05;102194.28;4956509;29;20031;-79
2021/04/11 11:56:23;;;;;;;5.15;2.13;;;;;;;19.15;21.53;102187.44;4957322;28;20039;-81
2021/04/11 11:59:25;;;;;;;4.47;0.90;;;;;;;19.14;21.28;102185.81;4957434;28;20023;-77
2021/04/11 12:02:41;;;;;;;1.65;0.85;;;;;;;18.56;20.04;102195.69;4956963;28;20031;-78
2021/04/11 12:05:24;;;;;;;2.55;1.00;;;;;;;19.47;19.98;102182.31;4951081;28;20122;-82
2021/04/11 12:07:53;;;;;;;2.85;0.90;;;;;;;19.75;20.59;102183.41;4965209;28;20031;-78
2021/04/11 12:10:35;;;;;;;5.43;0.93;;;;;;;19.94;20.52;102182.88;4963008;28;20035;-80
2021/04/11 12:13:12;;;;;;;2.53;1.23;;;;;;;20.04;20.84;102190.78;4956850;28;20035;-78
2021/04/11 12:15:48;;;;;;;8.68;2.17;;;;;;;19.90;20.62;102198.59;4957252;28;20075;-79
2021/04/11 12:18:23;;;;;;;1.60;0.75;;;;;;;20.15;19.94;102196.69;4957190;28;20063;-75
2021/04/11 12:21:04;;;;;;;4.30;1.33;;;;;;;20.12;20.20;102189.88;4968746;28;20030;-80